Time;durP1;ratioP1;P1;durP2;ratioP2;P2;SDS_P1;SDS_P2;PMS_P1;PMS_P2;Temp;Humidity;BMP_temperature;BMP_pressure;BME280_temperature;BME280_humidity;BME280_pressure;Samples;Min_cycle;Max_cycle;Signal;HPM_P1;HPM_P2
2022/09/16 00:02:04;;;;;;;6.00;5.40;;;;;;;14.46;100.00;95805.31;5029900;28;101812;-65
2022/09/16 00:04:31;;;;;;;8.23;5.57;;;;;;;14.45;100.00;95803.69;5028791;28;105621;-64
2022/09/16 00:06:57;;;;;;;7.03;5.80;;;;;;;14.44;100.00;95801.31;5031301;28;106447;-64
2022/09/16 00:09:26;;;;;;;5.53;5.00;;;;;;;14.47;100.00;95798.06;5029944;28;102616;-65
2022/09/16 00:11:53;;;;;;;6.10;5.50;;;;;;;14.47;100.00;95801.53;5029585;28;102560;-64
2022/09/16 00:14:20;;;;;;;6.03;5.47;;;;;;;14.43;100.00;95803.19;5028831;28;102320;-65
2022/09/16 00:16:47;;;;;;;6.20;5.60;;;;;;;14.45;100.00;95794.88;5030055;28;102263;-65
2022/09/16 00:19:14;;;;;;;6.50;5.50;;;;;;;14.44;100.00;95785.28;5028134;28;105673;-65
2022/09/16 00:21:41;;;;;;;5.77;5.27;;;;;;;14.39;100.00;95793.38;5028442;28;102036;-65
2022/09/16 00:24:12;;;;;;;6.43;5.70;;;;;;;14.33;100.00;95792.63;5029913;28;102589;-65
2022/09/16 00:26:41;;;;;;;6.60;6.00;;;;;;;14.30;100.00;95785.19;5027899;28;105795;-65
2022/09/16 00:29:08;;;;;;;5.90;5.30;;;;;;;14.31;100.00;95785.97;5033413;28;101750;-64
2022/09/16 00:31:35;;;;;;;6.20;5.67;;;;;;;14.31;100.00;95785.97;5029278;28;102535;-65
2022/09/16 00:34:02;;;;;;;5.53;5.03;;;;;;;14.31;100.00;95786.78;5029810;27;101853;-65
2022/09/16 00:36:29;;;;;;;6.13;5.27;;;;;;;14.28;100.00;95781.97;5029228;28;104093;-65
2022/09/16 00:38:56;;;;;;;4.90;4.50;;;;;;;14.35;100.00;95778.97;5029416;28;103172;-65
2022/09/16 00:41:26;;;;;;;5.77;5.30;;;;;;;14.38;100.00;95781.06;5028420;28;101880;-65
2022/09/16 00:43:57;;;;;;;5.87;4.90;;;;;;;14.32;100.00;95777.66;5031903;27;103224;-65
2022/09/16 00:46:32;;;;;;;6.07;5.40;;;;;;;14.29;100.00;95767.53;5032790;28;103222;-65
2022/09/16 00:49:04;;;;;;;5.67;5.17;;;;;;;14.26;100.00;95772.66;5031238;28;101832;-65
2022/09/16 00:51:31;;;;;;;5.20;4.80;;;;;;;14.21;100.00;95770.03;5034229;28;105183;-65
2022/09/16 00:54:02;;;;;;;5.40;4.83;;;;;;;14.21;100.00;95770.03;5033135;28;101838;-65
2022/09/16 00:56:34;;;;;;;5.17;4.67;;;;;;;14.23;100.00;95771.34;5033159;27;102240;-65
2022/09/16 00:59:07;;;;;;;6.00;5.27;;;;;;;14.32;100.00;95766.16;5032300;28;102648;-65
2022/09/16 01:01:34;;;;;;;4.80;4.17;;;;;;;14.34;100.00;95770.13;5031562;28;101827;-64
2022/09/16 01:04:06;;;;;;;4.63;4.03;;;;;;;14.40;100.00;95774.31;5032862;28;102885;-65
2022/09/16 01:06:38;;;;;;;4.80;4.40;;;;;;;14.35;100.00;95777.09;5030848;28;105921;-65
2022/09/16 01:09:06;;;;;;;4.87;4.47;;;;;;;14.46;100.00;95773.19;5031208;28;101885;-65
2022/09/16 01:11:33;;;;;;;4.73;4.40;;;;;;;14.44;100.00;95769.22;5032989;28;102362;-65
2022/09/16 01:16:48;;;;;;;4.97;4.57;;;;;;;14.46;100.00;95762.50;5032526;28;102545;-65
2022/09/16 01:19:27;;;;;;;5.60;4.93;;;;;;;14.46;100.00;95756.34;5032283;28;103095;-65
2022/09/16 01:22:07;;;;;;;5.13;4.60;;;;;;;14.46;100.00;95762.50;5032545;28;101679;-65
2022/09/16 01:24:52;;;;;;;4.10;3.80;;;;;;;14.44;100.00;95758.53;5031389;28;105020;-65
2022/09/16 01:27:45;;;;;;;4.80;4.50;;;;;;;14.45;100.00;95763.56;5032007;27;101699;-65
2022/09/16 01:30:47;;;;;;;4.90;4.50;;;;;;;14.46;100.00;95762.50;5032757;27;101698;-65
2022/09/16 01:33:26;;;;;;;5.60;5.10;;;;;;;14.45;100.00;95762.78;5032497;28;102615;-65
2022/09/16 01:36:11;;;;;;;5.70;5.20;;;;;;;14.38;100.00;95760.47;5035279;27;102842;-65
2022/09/16 01:38:54;;;;;;;4.87;4.47;;;;;;;14.33;100.00;95754.41;5030906;28;106242;-65
2022/09/16 01:41:29;;;;;;;5.87;4.30;;;;;;;14.28;100.00;95744.53;5030309;28;105324;-65
2022/09/16 01:44:03;;;;;;;4.40;4.00;;;;;;;14.21;100.00;95732.59;5032512;28;101692;-65
2022/09/16 01:46:42;;;;;;;5.43;4.03;;;;;;;14.14;100.00;95738.31;5032296;28;102328;-64
2022/09/16 01:49:19;;;;;;;4.20;3.80;;;;;;;14.10;100.00;95725.78;5029491;28;105811;-65
2022/09/16 01:51:53;;;;;;;4.17;3.87;;;;;;;14.11;100.00;95728.16;5030729;28;102088;-64
2022/09/16 01:54:27;;;;;;;4.30;3.90;;;;;;;14.10;100.00;95736.47;5030279;27;104749;-65
2022/09/16 01:57:01;;;;;;;4.80;4.40;;;;;;;14.06;100.00;95740.81;5031681;28;102597;-65
2022/09/16 01:59:37;;;;;;;4.07;3.73;;;;;;;14.01;100.00;95738.22;5035639;27;101749;-65
2022/09/16 02:02:12;;;;;;;4.50;3.93;;;;;;;14.02;100.00;95737.13;5031505;28;103295;-65
2022/09/16 02:04:44;;;;;;;4.80;4.07;;;;;;;14.01;100.00;95720.28;5030584;28;102021;-65
2022/09/16 02:07:15;;;;;;;4.10;3.80;;;;;;;14.01;100.00;95720.28;5030664;28;105080;-65
2022/09/16 02:09:48;;;;;;;4.70;4.30;;;;;;;14.05;100.00;95723.16;5031519;28;102559;-65
2022/09/16 02:12:21;;;;;;;5.13;4.30;;;;;;;14.03;100.00;95726.16;5031877;28;101802;-65
2022/09/16 02:14:51;;;;;;;5.40;4.30;;;;;;;14.04;100.00;95717.03;5031709;28;103055;-65
2022/09/16 02:17:24;;;;;;;5.87;4.00;;;;;;;14.05;100.00;95718.63;5029573;28;106469;-65
2022/09/16 02:19:57;;;;;;;4.27;3.87;;;;;;;14.10;100.00;95720.44;5031963;28;101705;-65
2022/09/16 02:22:29;;;;;;;4.40;4.00;;;;;;;14.10;100.00;95723.09;5032980;28;104287;-65
2022/09/16 02:24:59;;;;;;;4.17;3.77;;;;;;;14.08;100.00;95711.91;5031482;27;101736;-64
2022/09/16 02:27:29;;;;;;;4.40;4.10;;;;;;;14.08;100.00;95719.94;5031475;28;104027;-65
2022/09/16 02:30:01;;;;;;;5.20;4.70;;;;;;;14.06;100.00;95719.44;5029653;28;105902;-65
2022/09/16 02:32:32;;;;;;;5.93;4.90;;;;;;;14.03;100.00;95726.16;5031595;28;101757;-64
2022/09/16 02:34:59;;;;;;;5.60;5.00;;;;;;;14.06;100.00;95714.88;5030090;28;105113;-65
2022/09/16 02:37:32;;;;;;;6.03;4.43;;;;;;;14.10;100.00;95717.75;5030691;28;102823;-64
2022/09/16 02:40:04;;;;;;;4.40;4.10;;;;;;;14.10;100.00;95725.78;5031260;28;101904;-65
2022/09/16 02:42:32;;;;;;;5.33;4.93;;;;;;;14.06;100.00;95728.22;5031722;28;102867;-64
2022/09/16 02:45:01;;;;;;;5.83;5.30;;;;;;;13.93;100.00;95734.28;5033913;28;102626;-65
2022/09/16 02:47:34;;;;;;;6.03;5.17;;;;;;;13.90;100.00;95731.41;5030870;28;102866;-64
2022/09/16 02:50:06;;;;;;;7.30;5.50;;;;;;;13.85;100.00;95734.13;5029698;28;102791;-65
2022/09/16 02:52:38;;;;;;;6.00;5.17;;;;;;;13.75;100.00;95728.91;5031361;28;102222;-65
2022/09/16 02:55:13;;;;;;;5.07;4.67;;;;;;;13.65;100.00;95719.16;5031414;28;102881;-64
2022/09/16 02:57:41;;;;;;;5.97;5.13;;;;;;;13.69;100.00;95719.38;5030697;27;103142;-64
2022/09/16 03:00:09;;;;;;;5.83;5.30;;;;;;;13.66;100.00;95714.59;5031233;27;101775;-64
2022/09/16 03:02:37;;;;;;;6.00;5.40;;;;;;;13.69;100.00;95722.03;5031004;28;102373;-64
2022/09/16 03:05:06;;;;;;;6.17;5.57;;;;;;;13.68;100.00;95720.47;5029727;28;101972;-65
2022/09/16 03:07:34;;;;;;;6.10;5.50;;;;;;;13.71;100.00;95727.88;5034025;28;101823;-65
2022/09/16 03:10:01;;;;;;;5.80;5.30;;;;;;;13.68;100.00;95725.81;5030318;28;103319;-65
2022/09/16 03:12:55;;;;;;;6.00;5.43;;;;;;;13.61;100.00;95726.13;5030886;28;102051;-64
2022/09/16 03:15:42;;;;;;;8.97;6.03;;;;;;;13.56;100.00;95734.22;5026239;28;105424;-64
2022/09/16 03:18:41;;;;;;;6.83;6.23;;;;;;;13.55;100.00;95729.13;5030491;28;101746;-65
2022/09/16 03:21:17;;;;;;;7.23;6.30;;;;;;;13.57;100.00;95727.78;5030756;27;101860;-64
2022/09/16 03:23:52;;;;;;;8.37;6.17;;;;;;;13.59;100.00;95722.16;5030800;27;101680;-64
2022/09/16 03:26:27;;;;;;;7.33;6.63;;;;;;;13.57;100.00;95716.31;5028737;28;105261;-64
2022/09/16 03:29:07;;;;;;;8.43;6.40;;;;;;;13.57;100.00;95716.31;5034203;28;101785;-64
2022/09/16 03:31:39;;;;;;;8.73;7.03;;;;;;;13.56;100.00;95720.84;5030000;27;102671;-64
2022/09/16 03:34:14;;;;;;;7.57;6.87;;;;;;;13.60;100.00;95721.06;5030831;28;101957;-65
2022/09/16 03:36:46;;;;;;;10.07;7.17;;;;;;;13.58;100.00;95728.59;5030731;28;102344;-64
2022/09/16 03:39:14;;;;;;;8.03;7.23;;;;;;;13.56;100.00;95733.41;5030120;28;102583;-64
2022/09/16 03:41:42;;;;;;;9.10;7.47;;;;;;;13.55;100.00;95734.47;5029339;28;101907;-64
2022/09/16 03:44:09;;;;;;;9.20;7.47;;;;;;;13.53;100.00;95732.09;5029013;28;105183;-64
2022/09/16 03:46:36;;;;;;;8.60;7.73;;;;;;;13.55;100.00;95731.81;5029636;28;102857;-64
2022/09/16 03:49:03;;;;;;;8.63;7.73;;;;;;;13.56;100.00;95733.41;5029894;27;102354;-65
2022/09/16 03:51:32;;;;;;;8.63;7.83;;;;;;;13.58;100.00;95732.03;5031930;28;105065;-65
2022/09/16 03:53:59;;;;;;;9.57;7.20;;;;;;;13.59;100.00;95724.81;5029377;28;101923;-64
2022/09/16 03:56:35;;;;;;;12.07;7.50;;;;;;;13.58;100.00;95731.25;5030655;28;102456;-65
2022/09/16 03:59:02;;;;;;;8.20;7.40;;;;;;;13.64;100.00;95736.28;5030094;28;102514;-65
2022/09/16 04:01:28;;;;;;;8.97;7.53;;;;;;;13.62;100.00;95730.41;5029252;28;102100;-64
2022/09/16 04:03:56;;;;;;;7.40;6.80;;;;;;;13.66;100.00;95730.63;5029281;28;105610;-64
2022/09/16 04:07:12;;;;;;;8.30;7.37;;;;;;;13.73;100.00;95731.88;5029741;28;102530;-65
2022/09/16 04:09:41;;;;;;;9.10;8.20;;;;;;;13.75;100.00;95723.56;5030610;28;101682;-65
2022/09/16 04:12:09;;;;;;;7.90;7.20;;;;;;;13.71;100.00;95725.22;5029134;28;105022;-65
2022/09/16 04:14:36;;;;;;;7.70;6.70;;;;;;;13.75;100.00;95724.38;5033289;28;102562;-64
2022/09/16 04:17:40;;;;;;;6.83;6.23;;;;;;;13.81;100.00;95730.44;5031404;27;101684;-64
2022/09/16 04:20:22;;;;;;;6.17;5.67;;;;;;;13.81;100.00;95722.44;5032286;28;105410;-65
2022/09/16 04:22:49;;;;;;;7.13;6.43;;;;;;;13.79;100.00;95724.59;5034023;27;101707;-64
2022/09/16 04:25:18;;;;;;;7.20;6.50;;;;;;;13.79;100.00;95729.94;5032428;28;105123;-64
2022/09/16 04:27:45;;;;;;;6.50;5.90;;;;;;;13.79;100.00;95725.38;5032794;27;101901;-64
2022/09/16 04:30:13;;;;;;;7.53;6.83;;;;;;;13.75;100.00;95726.25;5031373;28;102004;-64
2022/09/16 04:32:40;;;;;;;8.20;6.80;;;;;;;13.76;100.00;95733.16;5031578;28;105318;-64
2022/09/16 04:35:08;;;;;;;7.63;6.90;;;;;;;13.76;100.00;95733.16;5032808;27;102575;-65
2022/09/16 04:37:35;;;;;;;8.53;7.23;;;;;;;13.68;100.00;95734.59;5036434;28;101859;-65
2022/09/16 04:40:03;;;;;;;7.80;6.77;;;;;;;13.69;100.00;95735.41;5031475;28;105408;-65
2022/09/16 04:42:31;;;;;;;7.23;6.37;;;;;;;13.71;100.00;95728.69;5031969;28;101771;-65
2022/09/16 04:44:59;;;;;;;11.30;7.23;;;;;;;13.69;100.00;95740.75;5031923;28;105583;-64
2022/09/16 04:47:27;;;;;;;7.73;6.93;;;;;;;13.60;100.00;95737.09;5032487;27;102512;-64
2022/09/16 04:49:54;;;;;;;8.80;7.27;;;;;;;13.58;100.00;95734.72;5030925;28;101963;-64
2022/09/16 04:52:22;;;;;;;7.77;6.80;;;;;;;13.59;100.00;95740.84;5031591;28;103644;-64
2022/09/16 04:54:48;;;;;;;12.17;7.03;;;;;;;13.60;100.00;95745.13;5031089;28;105656;-64
2022/09/16 04:57:15;;;;;;;8.33;7.43;;;;;;;13.62;100.00;95742.97;5031458;28;101971;-64
2022/09/16 04:59:44;;;;;;;8.07;7.33;;;;;;;13.62;100.00;95748.31;5035817;28;102337;-65
2022/09/16 05:02:11;;;;;;;7.57;6.80;;;;;;;13.66;100.00;95752.00;5031532;28;102141;-64
2022/09/16 05:04:38;;;;;;;7.30;6.60;;;;;;;13.71;100.00;95757.28;5033027;27;102910;-64
2022/09/16 05:07:05;;;;;;;7.47;6.77;;;;;;;13.71;100.00;95754.59;5032372;28;102487;-65
2022/09/16 05:09:33;;;;;;;8.13;6.30;;;;;;;13.65;100.00;95759.22;5031591;28;101947;-64
2022/09/16 05:11:59;;;;;;;7.77;7.07;;;;;;;13.69;100.00;95762.91;5031037;28;105288;-64
2022/09/16 05:14:27;;;;;;;9.80;6.60;;;;;;;13.69;100.00;95762.91;5032284;28;102614;-64
2022/09/16 05:16:56;;;;;;;7.63;6.73;;;;;;;13.64;100.00;95759.50;5032672;27;101909;-65
2022/09/16 05:19:23;;;;;;;9.60;7.13;;;;;;;13.69;100.00;95762.13;5031514;28;104882;-65
2022/09/16 05:21:50;;;;;;;7.50;6.73;;;;;;;13.71;100.00;95760.75;5034044;28;105443;-65
2022/09/16 05:24:17;;;;;;;7.73;6.53;;;;;;;13.67;100.00;95758.91;5031408;28;105150;-65
2022/09/16 05:26:44;;;;;;;7.57;6.97;;;;;;;13.70;100.00;95763.72;5030416;28;105455;-65
2022/09/16 05:29:14;;;;;;;7.10;6.47;;;;;;;13.69;100.00;95754.88;5032138;27;101982;-64
2022/09/16 05:31:43;;;;;;;7.00;6.40;;;;;;;13.70;100.00;95759.16;5031980;28;102472;-64
2022/09/16 05:34:15;;;;;;;8.87;6.03;;;;;;;13.69;100.00;95762.13;5031911;28;102826;-65
2022/09/16 05:36:43;;;;;;;7.20;6.50;;;;;;;13.74;100.00;95759.41;5032501;28;102120;-65
2022/09/16 05:39:11;;;;;;;7.20;6.50;;;;;;;13.71;100.00;95759.94;5032585;28;102842;-65
2022/09/16 05:41:38;;;;;;;9.83;6.50;;;;;;;13.79;100.00;95764.69;5034840;28;102651;-65
2022/09/16 05:44:06;;;;;;;6.47;5.87;;;;;;;13.86;100.00;95759.78;5032090;28;102444;-65
2022/09/16 05:46:34;;;;;;;7.23;6.07;;;;;;;13.90;100.00;95753.56;5031161;28;102815;-64
2022/09/16 05:49:01;;;;;;;7.03;6.03;;;;;;;13.89;100.00;95753.88;5030004;28;102016;-65
2022/09/16 05:51:30;;;;;;;6.17;5.53;;;;;;;13.96;100.00;95748.97;5030807;28;105258;-65
2022/09/16 05:53:58;;;;;;;6.57;5.97;;;;;;;14.00;100.00;95747.31;5031362;27;103077;-65
2022/09/16 05:56:27;;;;;;;8.23;6.37;;;;;;;13.94;100.00;95751.94;5032297;28;102183;-64
2022/09/16 05:58:56;;;;;;;7.93;6.83;;;;;;;13.93;100.00;95754.88;5032007;28;102362;-65
2022/09/16 06:01:25;;;;;;;7.27;6.20;;;;;;;13.98;100.00;95739.59;5031234;28;102012;-64
2022/09/16 06:03:53;;;;;;;7.50;6.47;;;;;;;14.00;100.00;95750.00;5035272;27;101841;-65
2022/09/16 06:06:24;;;;;;;8.93;6.90;;;;;;;14.03;100.00;95744.88;5031277;28;103137;-65
2022/09/16 06:08:55;;;;;;;7.73;6.00;;;;;;;13.97;100.00;95739.88;5031415;28;101793;-65
2022/09/16 06:11:22;;;;;;;7.67;6.77;;;;;;;14.06;100.00;95740.81;5031842;28;102571;-65
2022/09/16 06:13:54;;;;;;;6.30;5.70;;;;;;;14.17;100.00;95737.72;5031211;28;102558;-65
2022/09/16 06:16:22;;;;;;;6.73;6.03;;;;;;;14.23;100.00;95735.81;5031846;27;101814;-64
2022/09/16 06:18:49;;;;;;;6.70;6.10;;;;;;;14.22;100.00;95739.56;5031862;27;102896;-65
2022/09/16 06:21:17;;;;;;;13.83;6.83;;;;;;;14.17;100.00;95731.59;5029583;28;105394;-64
2022/09/16 06:23:44;;;;;;;6.93;6.10;;;;;;;14.26;100.00;95735.22;5031264;27;101983;-64
2022/09/16 06:26:15;;;;;;;6.87;5.60;;;;;;;14.26;100.00;95729.88;5034704;28;102375;-65
2022/09/16 06:28:43;;;;;;;7.93;6.23;;;;;;;14.27;100.00;95739.47;5031706;28;101751;-64
2022/09/16 06:31:12;;;;;;;6.30;5.70;;;;;;;14.25;100.00;95731.75;5030258;28;104084;-64
2022/09/16 06:33:40;;;;;;;5.83;5.30;;;;;;;14.35;100.00;95736.16;5030901;28;103276;-64
2022/09/16 06:36:10;;;;;;;7.30;6.43;;;;;;;14.32;100.00;95731.38;5031533;28;101812;-65
2022/09/16 06:38:37;;;;;;;7.20;6.37;;;;;;;14.29;100.00;95732.75;5031254;28;102879;-65
2022/09/16 06:41:06;;;;;;;8.20;6.40;;;;;;;14.36;100.00;95735.06;5029744;27;103190;-64
2022/09/16 06:43:36;;;;;;;7.07;6.47;;;;;;;14.35;100.00;95736.97;5029872;28;102626;-65
2022/09/16 06:46:05;;;;;;;7.10;6.40;;;;;;;14.31;100.00;95724.44;5031162;28;102301;-64
2022/09/16 06:48:34;;;;;;;8.87;6.50;;;;;;;14.38;100.00;95728.34;5034149;28;102877;-64
2022/09/16 06:51:02;;;;;;;6.37;5.73;;;;;;;14.52;100.00;95723.06;5029321;28;105165;-64
2022/09/16 06:53:30;;;;;;;9.87;6.27;;;;;;;14.55;100.00;95719.81;5030410;28;102594;-64
2022/09/16 06:56:01;;;;;;;6.30;5.70;;;;;;;14.56;100.00;95722.19;5029906;28;101802;-64
2022/09/16 06:58:29;;;;;;;7.33;5.90;;;;;;;14.58;100.00;95717.38;5029984;28;105074;-65
2022/09/16 07:00:58;;;;;;;7.27;5.80;;;;;;;14.70;100.00;95708.88;5030304;28;102567;-64
2022/09/16 07:03:25;;;;;;;6.33;5.30;;;;;;;14.72;100.00;95717.41;5031044;28;101866;-64
2022/09/16 07:05:57;;;;;;;6.27;5.30;;;;;;;14.68;100.00;95713.72;5031056;28;102360;-64
2022/09/16 07:08:25;;;;;;;6.40;5.80;;;;;;;14.68;100.00;95716.41;5029178;28;106760;-64
2022/09/16 07:10:58;;;;;;;5.83;4.70;;;;;;;15.02;100.00;95725.72;5033993;27;101940;-65
2022/09/16 07:13:26;;;;;;;6.77;5.90;;;;;;;15.00;100.00;95719.09;5030525;28;103167;-65
2022/09/16 07:15:53;;;;;;;5.80;5.13;;;;;;;15.12;100.00;95730.13;5030917;28;102036;-64
2022/09/16 07:18:22;;;;;;;6.37;5.40;;;;;;;15.37;100.00;95724.34;5030887;28;101780;-65
2022/09/16 07:20:48;;;;;;;6.23;5.03;;;;;;;15.66;100.00;95725.66;5029683;28;104516;-65
2022/09/16 07:23:15;;;;;;;7.47;5.00;;;;;;;15.66;100.00;95725.66;5030965;28;101732;-65
2022/09/16 07:25:42;;;;;;;7.67;6.10;;;;;;;15.76;100.00;95717.41;5030746;28;102365;-65
2022/09/16 07:28:09;;;;;;;6.53;5.33;;;;;;;15.88;100.00;95730.31;5029997;28;104141;-65
2022/09/16 07:30:36;;;;;;;9.27;6.30;;;;;;;15.85;100.00;95722.84;5030532;28;101893;-65
2022/09/16 07:33:03;;;;;;;7.10;5.10;;;;;;;15.98;100.00;95717.47;5033315;27;102406;-65
2022/09/16 07:35:32;;;;;;;4.87;4.47;;;;;;;15.95;100.00;95725.34;5030368;27;101836;-65
2022/09/16 07:38:00;;;;;;;8.33;5.20;;;;;;;15.97;100.00;95728.53;5030865;28;102333;-65
2022/09/16 07:40:27;;;;;;;6.43;5.80;;;;;;;15.46;100.00;95728.72;5028538;28;104530;-65
2022/09/16 07:42:54;;;;;;;7.13;5.50;;;;;;;15.64;100.00;95727.06;5030495;28;101836;-65
2022/09/16 07:45:22;;;;;;;6.93;5.67;;;;;;;15.77;100.00;95728.94;5030571;27;102200;-65
2022/09/16 07:47:49;;;;;;;7.63;5.67;;;;;;;15.49;100.00;95730.00;5029717;28;101935;-65
2022/09/16 07:50:16;;;;;;;5.20;4.70;;;;;;;15.94;100.00;95742.53;5028259;28;102016;-65
2022/09/16 07:52:45;;;;;;;8.87;5.57;;;;;;;16.04;100.00;95740.44;5031464;28;104511;-65
2022/09/16 07:55:14;;;;;;;6.23;5.33;;;;;;;16.08;100.00;95729.91;5030282;28;101872;-65
2022/09/16 07:57:41;;;;;;;6.30;5.70;;;;;;;16.14;100.00;95729.47;5028984;28;105127;-65
2022/09/16 08:00:09;;;;;;;5.97;5.20;;;;;;;16.21;100.00;95726.41;5029667;28;102559;-65
2022/09/16 08:02:38;;;;;;;5.37;4.87;;;;;;;16.38;100.00;95730.03;5030089;28;101832;-65
2022/09/16 08:05:06;;;;;;;6.43;5.83;;;;;;;16.37;100.00;95736.50;5030273;28;102491;-65
2022/09/16 08:07:33;;;;;;;7.23;5.40;;;;;;;16.74;100.00;95740.78;5029528;28;103570;-65
2022/09/16 08:10:02;;;;;;;7.10;5.40;;;;;;;16.83;100.00;95733.56;5030397;28;102032;-65
2022/09/16 08:12:31;;;;;;;6.60;5.37;;;;;;;16.94;100.00;95734.94;5030052;28;102401;-65
2022/09/16 08:14:58;;;;;;;5.60;5.10;;;;;;;17.04;100.00;95727.41;5032730;28;103179;-65
2022/09/16 08:17:26;;;;;;;6.43;5.10;;;;;;;17.22;100.00;95725.66;5030078;28;102660;-65
2022/09/16 08:19:54;;;;;;;6.70;5.97;;;;;;;17.18;100.00;95721.97;5029313;28;103116;-65
2022/09/16 08:22:22;;;;;;;5.47;4.97;;;;;;;17.12;100.00;95717.84;5029820;27;101800;-65
2022/09/16 08:24:49;;;;;;;5.30;4.80;;;;;;;17.09;100.00;95719.25;5029875;27;102216;-65
2022/09/16 08:27:17;;;;;;;4.87;4.43;;;;;;;17.18;100.00;95703.97;5029262;27;102720;-65
2022/09/16 08:29:44;;;;;;;5.17;4.67;;;;;;;17.26;100.00;95713.16;5028515;28;102039;-65
2022/09/16 08:32:11;;;;;;;5.47;4.90;;;;;;;17.29;100.00;95707.19;5028573;28;105705;-65
2022/09/16 08:34:39;;;;;;;5.20;4.70;;;;;;;17.45;100.00;95705.72;5029082;28;102560;-65
2022/09/16 08:37:07;;;;;;;6.67;5.70;;;;;;;17.23;100.00;95708.41;5031948;28;101973;-65
2022/09/16 08:39:34;;;;;;;6.63;6.03;;;;;;;17.56;100.00;95715.84;5029208;28;102851;-65
2022/09/16 08:42:32;;;;;;;6.63;6.00;;;;;;;17.97;100.00;95702.88;5029591;28;101802;-65
2022/09/16 08:45:10;;;;;;;6.73;5.80;;;;;;;17.86;100.00;95706.97;5024715;28;105140;-65
2022/09/16 08:47:47;;;;;;;6.53;5.63;;;;;;;18.25;100.00;95700.72;5028894;27;102529;-65
2022/09/16 08:50:22;;;;;;;6.50;5.47;;;;;;;17.67;100.00;95703.75;5029086;28;102077;-65
2022/09/16 08:52:52;;;;;;;5.50;5.00;;;;;;;17.21;100.00;95694.47;5028234;28;104852;-65
2022/09/16 08:55:24;;;;;;;6.10;4.87;;;;;;;17.16;100.00;95697.31;5029120;28;102791;-65
2022/09/16 08:57:57;;;;;;;6.83;4.77;;;;;;;17.24;100.00;95692.00;5029744;28;101755;-65
2022/09/16 09:00:26;;;;;;;4.83;4.37;;;;;;;17.57;100.00;95689.78;5032181;28;104041;-65
2022/09/16 09:02:57;;;;;;;5.47;4.97;;;;;;;17.70;100.00;95686.97;5028012;27;101996;-65
2022/09/16 09:05:31;;;;;;;5.23;4.70;;;;;;;17.83;100.00;95690.66;5032614;28;102379;-65
2022/09/16 09:08:24;;;;;;;5.77;4.73;;;;;;;17.87;100.00;95686.25;5032337;28;102766;-65
2022/09/16 09:10:56;;;;;;;5.87;5.23;;;;;;;17.82;100.00;95687.16;5032647;28;101754;-65
2022/09/16 09:13:43;;;;;;;5.13;4.63;;;;;;;18.06;100.00;95684.88;5033019;27;101740;-65
2022/09/16 09:16:20;;;;;;;4.67;4.27;;;;;;;18.28;100.00;95675.84;5032232;27;102826;-65
2022/09/16 09:18:56;;;;;;;4.73;4.33;;;;;;;18.39;100.00;95677.16;5032776;28;101692;-65
2022/09/16 09:21:30;;;;;;;4.80;4.30;;;;;;;18.57;100.00;95676.06;5032636;28;102501;-65
2022/09/16 09:24:25;;;;;;;4.93;4.43;;;;;;;18.48;100.00;95667.97;5035729;27;102646;-65
2022/09/16 09:26:58;;;;;;;4.77;4.30;;;;;;;18.81;100.00;95669.06;5026828;27;102915;-65
2022/09/16 09:29:50;;;;;;;7.67;4.47;;;;;;;18.65;100.00;95676.03;5030481;28;105974;-65
2022/09/16 09:32:26;;;;;;;6.07;5.23;;;;;;;18.29;100.00;95666.66;5032658;28;101688;-65
2022/09/16 09:35:06;;;;;;;7.67;4.97;;;;;;;17.56;100.00;95666.69;5032736;28;102266;-65
2022/09/16 09:37:46;;;;;;;5.93;4.87;;;;;;;17.59;100.00;95663.38;5032109;28;101703;-67
2022/09/16 09:40:17;;;;;;;7.50;4.57;;;;;;;18.06;100.00;95657.16;5032684;28;101728;-67
2022/09/16 09:42:49;;;;;;;6.97;5.63;;;;;;;17.85;100.00;95661.53;5031157;28;103953;-67
2022/09/16 09:45:23;;;;;;;6.67;6.07;;;;;;;17.40;100.00;95649.41;5030381;28;104703;-67
2022/09/16 09:47:57;;;;;;;8.03;5.87;;;;;;;17.24;100.00;95650.88;5034519;28;102069;-67
2022/09/16 09:50:30;;;;;;;7.37;6.27;;;;;;;16.83;100.00;95661.06;5029471;28;105380;-68
2022/09/16 09:53:07;;;;;;;7.50;6.13;;;;;;;16.82;100.00;95664.88;5032239;28;101898;-67
2022/09/16 09:55:36;;;;;;;8.97;6.37;;;;;;;17.12;100.00;95658.72;5032364;27;101661;-68
2022/09/16 09:58:13;;;;;;;7.10;6.40;;;;;;;16.86;100.00;95660.47;5030086;28;105627;-67
2022/09/16 10:00:40;;;;;;;7.83;6.43;;;;;;;16.96;100.00;95657.53;5031867;28;101840;-67
2022/09/16 10:03:15;;;;;;;7.03;6.40;;;;;;;16.87;100.00;95660.16;5030471;28;104680;-67
2022/09/16 10:05:42;;;;;;;8.13;7.30;;;;;;;17.07;100.00;95659.63;5029994;28;105251;-68
2022/09/16 10:08:17;;;;;;;7.93;5.97;;;;;;;17.03;100.00;95658.69;5034121;28;101952;-68
2022/09/16 10:10:50;;;;;;;7.33;6.27;;;;;;;17.06;100.00;95654.59;5029788;28;105656;-68
2022/09/16 10:13:18;;;;;;;7.23;6.63;;;;;;;16.91;100.00;95653.09;5030310;28;101854;-68
2022/09/16 10:15:46;;;;;;;7.10;6.50;;;;;;;16.74;100.00;95652.97;5031413;27;102521;-67
2022/09/16 10:18:22;;;;;;;7.00;6.40;;;;;;;16.80;100.00;95642.91;5031561;27;102637;-67
2022/09/16 10:20:59;;;;;;;6.60;6.00;;;;;;;16.77;100.00;95647.00;5030469;28;101849;-67
2022/09/16 10:23:27;;;;;;;8.90;7.00;;;;;;;16.74;100.00;95646.81;5030158;28;105716;-68
2022/09/16 10:26:05;;;;;;;7.50;6.80;;;;;;;16.61;100.00;95647.66;5029785;28;105431;-67
2022/09/16 10:28:33;;;;;;;7.37;6.63;;;;;;;16.59;100.00;95655.25;5031882;27;101748;-67
2022/09/16 10:31:01;;;;;;;7.90;7.10;;;;;;;16.13;100.00;95646.66;5032642;28;105571;-67
2022/09/16 10:33:32;;;;;;;8.27;7.33;;;;;;;16.03;100.00;95652.22;5031663;28;101853;-67
2022/09/16 10:36:02;;;;;;;9.47;7.53;;;;;;;15.99;100.00;95659.28;5031392;27;102240;-67
2022/09/16 10:38:37;;;;;;;9.20;8.27;;;;;;;16.01;100.00;95654.41;5029717;28;105228;-67
2022/09/16 10:41:08;;;;;;;9.10;7.80;;;;;;;16.10;100.00;95657.97;5031624;27;102050;-67
2022/09/16 10:43:39;;;;;;;9.03;8.23;;;;;;;16.00;100.00;95648.25;5031583;28;102490;-67
2022/09/16 10:46:08;;;;;;;9.23;7.23;;;;;;;16.08;100.00;95638.72;5030570;28;101783;-67
2022/09/16 10:48:37;;;;;;;8.67;7.87;;;;;;;15.83;100.00;95641.94;5030030;28;101904;-67
2022/09/16 10:51:06;;;;;;;9.63;8.73;;;;;;;15.85;100.00;95647.78;5029371;28;105647;-67
2022/09/16 10:53:35;;;;;;;8.80;7.90;;;;;;;15.77;100.00;95638.59;5032727;28;105511;-67
2022/09/16 10:56:05;;;;;;;13.17;8.60;;;;;;;15.95;100.00;95644.88;5029888;28;105197;-67
2022/09/16 10:58:33;;;;;;;8.30;7.50;;;;;;;16.07;100.00;95655.91;5028762;28;105011;-67
2022/09/16 11:01:16;;;;;;;9.47;8.50;;;;;;;16.17;100.00;95659.13;5030949;28;102133;-68
2022/09/16 11:04:19;;;;;;;9.23;8.33;;;;;;;16.05;100.00;95661.56;5029912;28;104868;-68
2022/09/16 11:07:07;;;;;;;9.50;8.43;;;;;;;16.21;100.00;95648.59;5020419;28;105901;-68
2022/09/16 11:09:45;;;;;;;10.70;7.73;;;;;;;16.41;100.00;95622.09;5031175;27;102153;-68
2022/09/16 11:12:53;;;;;;;7.67;6.70;;;;;;;16.68;100.00;95638.09;5030960;27;102448;-68
2022/09/16 11:15:32;;;;;;;8.97;8.17;;;;;;;16.61;100.00;95647.66;5008503;27;103053;-68
2022/09/16 11:18:13;;;;;;;9.47;8.57;;;;;;;16.10;100.00;95658.78;5034390;28;101830;-67
2022/09/16 11:21:05;;;;;;;7.93;7.23;;;;;;;16.59;100.00;95637.25;5028783;28;105238;-68
2022/09/16 11:23:47;;;;;;;8.00;7.20;;;;;;;16.85;100.00;95648.16;5027476;28;101901;-68
2022/09/16 11:26:25;;;;;;;8.67;7.20;;;;;;;16.78;100.00;95639.75;5028823;28;104954;-68
2022/09/16 11:29:14;;;;;;;9.20;8.30;;;;;;;17.02;100.00;95642.88;5028715;28;104039;-68
2022/09/16 11:31:54;;;;;;;9.10;8.30;;;;;;;17.39;100.00;95631.69;5030712;28;101883;-68
2022/09/16 11:34:36;;;;;;;8.90;8.10;;;;;;;17.54;100.00;95633.97;5030755;28;102530;-68
2022/09/16 11:37:14;;;;;;;9.60;7.83;;;;;;;17.70;100.00;95637.78;5028515;28;105709;-68
2022/09/16 11:39:53;;;;;;;9.60;7.43;;;;;;;18.05;100.00;95632.13;5030749;28;101905;-68
2022/09/16 11:42:30;;;;;;;9.57;7.90;;;;;;;18.06;100.00;95624.88;5033453;28;102380;-67